createdAt,value
2023-01-25T14:24:42.215Z,25.50
2023-01-25T14:27:17.464Z,26.50
2023-01-25T14:29:48.469Z,23.10
2023-01-25T14:32:20.102Z,26.40
2023-01-25T14:34:53.648Z,28.60
2023-01-25T14:37:22.364Z,27.50
2023-01-25T14:39:56.256Z,26.00
2023-01-25T14:42:23.475Z,24.40
2023-01-25T14:44:50.859Z,26.60
2023-01-25T14:47:32.697Z,27.70
2023-01-25T14:50:35.261Z,29.70
2023-01-25T15:23:40.043Z,30.20
2023-01-25T15:42:05.145Z,31.00
2023-01-25T17:12:36.273Z,53.70
2023-01-25T17:58:04.151Z,55.30
2023-01-25T18:00:31.853Z,56.20
2023-01-25T18:03:13.058Z,58.80
2023-01-25T18:06:18.947Z,53.40
2023-01-25T18:08:50.285Z,55.50
2023-01-25T18:15:29.207Z,59.60
2023-01-25T18:17:56.301Z,55.80
2023-01-25T18:20:46.560Z,53.10
2023-01-25T18:23:15.360Z,58.10
2023-01-25T18:25:42.459Z,59.60
2023-01-25T18:28:13.074Z,53.20
2023-01-25T18:30:43.595Z,59.60
2023-01-25T18:33:12.125Z,50.70
2023-01-25T18:35:55.610Z,57.30
2023-01-25T18:38:28.699Z,58.00
2023-01-25T18:40:59.390Z,54.10
2023-01-25T18:43:35.665Z,56.80
2023-01-25T18:46:05.754Z,56.30
2023-01-25T20:07:30.721Z,63.60
2023-01-25T20:10:01.453Z,59.30
2023-01-25T20:12:28.926Z,61.70
2023-01-25T21:57:08.352Z,43.70
2023-01-25T21:59:36.256Z,44.00
2023-01-25T22:02:05.890Z,40.60
2023-01-25T22:04:35.729Z,38.20
2023-01-25T23:24:01.283Z,47.60
2023-01-25T23:26:38.408Z,64.90
2023-01-25T23:29:12.088Z,75.90
2023-01-25T23:31:40.296Z,65.30
2023-01-25T23:34:07.521Z,58.90
2023-01-25T23:36:42.760Z,54.90
2023-01-25T23:39:13.024Z,52.00
